sensor_id;sensor_type;location;lat;lon;timestamp;pressure;altitude;pressure_sealevel;temperature;humidity
55590;BME280;41452;42.780;23.116;2023-06-26T00:01:02;94183.88;;;18.85;100.00
55590;BME280;41452;42.780;23.116;2023-06-26T00:03:27;94201.88;;;18.93;100.00
55590;BME280;41452;42.780;23.116;2023-06-26T00:05:54;94206.34;;;18.97;100.00
55590;BME280;41452;42.780;23.116;2023-06-26T00:08:19;94202.09;;;18.96;100.00
55590;BME280;41452;42.780;23.116;2023-06-26T00:10:44;94210.00;;;19.02;100.00
55590;BME280;41452;42.780;23.116;2023-06-26T00:13:11;94209.78;;;18.98;100.00
55590;BME280;41452;42.780;23.116;2023-06-26T00:15:37;94178.59;;;18.79;100.00
55590;BME280;41452;42.780;23.116;2023-06-26T00:18:03;94201.97;;;19.07;100.00
55590;BME280;41452;42.780;23.116;2023-06-26T00:20:28;94187.84;;;18.87;100.00
55590;BME280;41452;42.780;23.116;2023-06-26T00:22:54;94194.13;;;18.96;100.00
55590;BME280;41452;42.780;23.116;2023-06-26T00:25:20;94171.09;;;18.87;100.00
55590;BME280;41452;42.780;23.116;2023-06-26T00:27:46;94194.06;;;19.02;100.00
55590;BME280;41452;42.780;23.116;2023-06-26T00:30:12;94188.84;;;18.91;100.00
55590;BME280;41452;42.780;23.116;2023-06-26T00:32:37;94196.22;;;18.99;100.00
55590;BME280;41452;42.780;23.116;2023-06-26T00:35:02;94189.78;;;19.00;100.00
55590;BME280;41452;42.780;23.116;2023-06-26T00:37:28;94190.00;;;19.04;100.00
55590;BME280;41452;42.780;23.116;2023-06-26T00:39:53;94180.97;;;19.05;100.00
55590;BME280;41452;42.780;23.116;2023-06-26T00:42:18;94189.16;;;19.09;100.00
55590;BME280;41452;42.780;23.116;2023-06-26T00:44:44;94191.88;;;19.04;100.00
55590;BME280;41452;42.780;23.116;2023-06-26T00:47:14;94180.19;;;19.05;100.00
55590;BME280;41452;42.780;23.116;2023-06-26T00:49:40;94165.91;;;18.95;100.00
55590;BME280;41452;42.780;23.116;2023-06-26T00:52:06;94170.16;;;18.96;100.00
55590;BME280;41452;42.780;23.116;2023-06-26T00:54:31;94174.91;;;18.99;100.00
55590;BME280;41452;42.780;23.116;2023-06-26T00:56:57;94169.09;;;18.97;100.00
55590;BME280;41452;42.780;23.116;2023-06-26T00:59:23;94173.81;;;19.00;100.00
55590;BME280;41452;42.780;23.116;2023-06-26T01:01:48;94178.78;;;19.07;100.00
55590;BME280;41452;42.780;23.116;2023-06-26T01:04:14;94175.34;;;19.07;100.00
55590;BME280;41452;42.780;23.116;2023-06-26T01:06:45;94171.75;;;18.97;100.00
55590;BME280;41452;42.780;23.116;2023-06-26T01:09:17;94169.88;;;18.98;100.00
55590;BME280;41452;42.780;23.116;2023-06-26T01:11:43;94163.34;;;18.90;100.00
55590;BME280;41452;42.780;23.116;2023-06-26T01:14:09;94165.41;;;18.93;100.00
55590;BME280;41452;42.780;23.116;2023-06-26T01:16:35;94161.69;;;18.94;100.00
55590;BME280;41452;42.780;23.116;2023-06-26T01:19:00;94159.59;;;18.91;100.00
55590;BME280;41452;42.780;23.116;2023-06-26T01:21:26;94140.06;;;18.77;100.00
55590;BME280;41452;42.780;23.116;2023-06-26T01:24:16;94155.94;;;18.87;100.00
55590;BME280;41452;42.780;23.116;2023-06-26T01:26:52;94146.66;;;18.79;100.00
55590;BME280;41452;42.780;23.116;2023-06-26T01:29:18;94149.88;;;18.82;100.00
55590;BME280;41452;42.780;23.116;2023-06-26T01:31:45;94148.88;;;18.72;100.00
55590;BME280;41452;42.780;23.116;2023-06-26T01:34:17;94153.16;;;18.73;100.00
55590;BME280;41452;42.780;23.116;2023-06-26T01:36:44;94133.81;;;18.68;100.00
55590;BME280;41452;42.780;23.116;2023-06-26T01:39:10;94141.22;;;18.71;100.00
55590;BME280;41452;42.780;23.116;2023-06-26T01:41:35;94144.94;;;18.70;100.00
55590;BME280;41452;42.780;23.116;2023-06-26T01:52:12;94125.66;;;18.59;100.00
55590;BME280;41452;42.780;23.116;2023-06-26T01:54:53;94127.16;;;18.65;100.00
55590;BME280;41452;42.780;23.116;2023-06-26T01:57:20;94129.91;;;18.60;100.00
55590;BME280;41452;42.780;23.116;2023-06-26T01:59:48;94122.91;;;18.45;100.00
55590;BME280;41452;42.780;23.116;2023-06-26T02:02:13;94140.25;;;18.61;100.00
55590;BME280;41452;42.780;23.116;2023-06-26T02:04:40;94147.28;;;18.52;100.00
55590;BME280;41452;42.780;23.116;2023-06-26T02:07:05;94144.63;;;18.52;100.00
55590;BME280;41452;42.780;23.116;2023-06-26T02:09:31;94138.75;;;18.55;100.00
55590;BME280;41452;42.780;23.116;2023-06-26T02:11:56;94133.47;;;18.50;100.00
55590;BME280;41452;42.780;23.116;2023-06-26T02:14:21;94131.81;;;18.54;100.00
55590;BME280;41452;42.780;23.116;2023-06-26T02:16:47;94134.53;;;18.49;100.00
55590;BME280;41452;42.780;23.116;2023-06-26T02:19:12;94110.00;;;18.33;100.00
55590;BME280;41452;42.780;23.116;2023-06-26T02:21:37;94123.47;;;18.42;100.00
55590;BME280;41452;42.780;23.116;2023-06-26T02:24:04;94124.41;;;18.32;100.00
55590;BME280;41452;42.780;23.116;2023-06-26T02:26:30;94104.72;;;18.09;100.00
55590;BME280;41452;42.780;23.116;2023-06-26T02:28:55;94121.91;;;18.17;100.00
55590;BME280;41452;42.780;23.116;2023-06-26T02:31:21;94130.09;;;18.20;100.00
55590;BME280;41452;42.780;23.116;2023-06-26T02:33:46;94138.03;;;18.26;100.00
55590;BME280;41452;42.780;23.116;2023-06-26T02:36:11;94120.03;;;18.17;100.00
55590;BME280;41452;42.780;23.116;2023-06-26T02:38:37;94138.53;;;18.28;100.00
55590;BME280;41452;42.780;23.116;2023-06-26T02:41:02;94138.25;;;18.29;100.00
55590;BME280;41452;42.780;23.116;2023-06-26T02:43:27;94138.47;;;18.33;100.00
55590;BME280;41452;42.780;23.116;2023-06-26T02:45:53;94134.81;;;18.29;100.00
55590;BME280;41452;42.780;23.116;2023-06-26T02:48:18;94130.28;;;18.29;100.00
55590;BME280;41452;42.780;23.116;2023-06-26T02:50:43;94115.75;;;18.21;100.00
55590;BME280;41452;42.780;23.116;2023-06-26T02:53:11;94132.16;;;18.29;100.00
55590;BME280;41452;42.780;23.116;2023-06-26T02:55:37;94137.34;;;18.39;100.00
55590;BME280;41452;42.780;23.116;2023-06-26T02:58:02;94137.06;;;18.40;100.00
55590;BME280;41452;42.780;23.116;2023-06-26T03:00:27;94098.72;;;18.22;100.00
55590;BME280;41452;42.780;23.116;2023-06-26T03:02:55;94128.78;;;18.42;100.00
55590;BME280;41452;42.780;23.116;2023-06-26T03:05:20;94109.28;;;18.28;100.00
55590;BME280;41452;42.780;23.116;2023-06-26T03:07:46;94134.41;;;18.40;100.00
55590;BME280;41452;42.780;23.116;2023-06-26T03:10:12;94136.81;;;18.37;100.00
55590;BME280;41452;42.780;23.116;2023-06-26T03:12:37;94121.22;;;18.30;100.00
55590;BME280;41452;42.780;23.116;2023-06-26T03:15:02;94131.28;;;18.33;100.00
55590;BME280;41452;42.780;23.116;2023-06-26T03:17:28;94141.06;;;18.38;100.00
55590;BME280;41452;42.780;23.116;2023-06-26T03:19:53;94140.56;;;18.36;100.00
55590;BME280;41452;42.780;23.116;2023-06-26T03:22:19;94137.69;;;18.32;100.00
55590;BME280;41452;42.780;23.116;2023-06-26T03:24:44;94130.59;;;18.22;100.00
55590;BME280;41452;42.780;23.116;2023-06-26T03:27:13;94113.97;;;18.12;100.00
55590;BME280;41452;42.780;23.116;2023-06-26T03:29:38;94104.88;;;17.94;100.00
55590;BME280;41452;42.780;23.116;2023-06-26T03:32:04;94126.63;;;17.96;100.00
55590;BME280;41452;42.780;23.116;2023-06-26T03:34:29;94149.38;;;18.07;100.00
55590;BME280;41452;42.780;23.116;2023-06-26T03:36:55;94149.94;;;18.04;100.00
55590;BME280;41452;42.780;23.116;2023-06-26T03:39:20;94142.19;;;18.08;100.00
55590;BME280;41452;42.780;23.116;2023-06-26T03:41:45;94105.03;;;17.78;100.00
55590;BME280;41452;42.780;23.116;2023-06-26T03:44:11;94138.19;;;18.10;100.00
55590;BME280;41452;42.780;23.116;2023-06-26T03:46:37;94113.88;;;17.98;100.00
55590;BME280;41452;42.780;23.116;2023-06-26T03:49:02;94130.28;;;18.05;100.00
55590;BME280;41452;42.780;23.116;2023-06-26T03:51:28;94131.03;;;18.11;100.00
55590;BME280;41452;42.780;23.116;2023-06-26T03:53:53;94100.59;;;17.98;100.00
55590;BME280;41452;42.780;23.116;2023-06-26T03:56:18;94131.47;;;18.18;100.00
55590;BME280;41452;42.780;23.116;2023-06-26T03:58:44;94121.22;;;18.06;100.00
55590;BME280;41452;42.780;23.116;2023-06-26T04:01:09;94139.66;;;18.21;100.00
55590;BME280;41452;42.780;23.116;2023-06-26T04:03:35;94138.31;;;18.24;100.00
55590;BME280;41452;42.780;23.116;2023-06-26T04:06:00;94128.31;;;18.16;100.00
55590;BME280;41452;42.780;23.116;2023-06-26T04:08:26;94143.56;;;18.29;100.00
55590;BME280;41452;42.780;23.116;2023-06-26T04:10:52;94149.97;;;18.28;100.00
55590;BME280;41452;42.780;23.116;2023-06-26T04:13:18;94129.38;;;18.15;100.00
55590;BME280;41452;42.780;23.116;2023-06-26T04:15:43;94152.25;;;18.35;100.00
55590;BME280;41452;42.780;23.116;2023-06-26T04:18:08;94148.03;;;18.34;100.00
55590;BME280;41452;42.780;23.116;2023-06-26T04:20:39;94112.88;;;18.18;100.00
55590;BME280;41452;42.780;23.116;2023-06-26T04:23:06;94138.53;;;18.28;100.00
55590;BME280;41452;42.780;23.116;2023-06-26T04:25:31;94145.66;;;18.32;100.00
55590;BME280;41452;42.780;23.116;2023-06-26T04:27:56;94149.50;;;18.45;100.00
55590;BME280;41452;42.780;23.116;2023-06-26T04:30:22;94153.81;;;18.41;100.00
55590;BME280;41452;42.780;23.116;2023-06-26T04:32:47;94153.25;;;18.44;100.00
55590;BME280;41452;42.780;23.116;2023-06-26T04:35:13;94164.44;;;18.41;100.00
55590;BME280;41452;42.780;23.116;2023-06-26T04:37:38;94162.84;;;18.40;100.00
55590;BME280;41452;42.780;23.116;2023-06-26T04:40:05;94151.72;;;18.38;100.00
55590;BME280;41452;42.780;23.116;2023-06-26T04:42:32;94152.38;;;18.49;100.00
55590;BME280;41452;42.780;23.116;2023-06-26T04:44:57;94159.50;;;18.53;100.00
55590;BME280;41452;42.780;23.116;2023-06-26T04:47:23;94134.81;;;18.29;100.00
55590;BME280;41452;42.780;23.116;2023-06-26T04:49:48;94164.88;;;18.48;100.00
55590;BME280;41452;42.780;23.116;2023-06-26T04:52:14;94131.91;;;18.25;100.00
55590;BME280;41452;42.780;23.116;2023-06-26T04:54:39;94145.88;;;18.36;100.00
55590;BME280;41452;42.780;23.116;2023-06-26T04:57:05;94172.81;;;18.53;100.00
55590;BME280;41452;42.780;23.116;2023-06-26T04:59:31;94162.16;;;18.53;100.00
55590;BME280;41452;42.780;23.116;2023-06-26T05:01:56;94169.13;;;18.49;100.00
55590;BME280;41452;42.780;23.116;2023-06-26T05:04:21;94135.88;;;18.28;100.00
55590;BME280;41452;42.780;23.116;2023-06-26T05:06:48;94151.88;;;18.47;100.00
55590;BME280;41452;42.780;23.116;2023-06-26T05:09:13;94150.59;;;18.44;100.00
55590;BME280;41452;42.780;23.116;2023-06-26T05:11:39;94133.88;;;18.38;100.00
55590;BME280;41452;42.780;23.116;2023-06-26T05:14:05;94171.66;;;18.59;100.00
55590;BME280;41452;42.780;23.116;2023-06-26T05:16:33;94166.00;;;18.66;100.00
55590;BME280;41452;42.780;23.116;2023-06-26T05:18:59;94146.22;;;18.53;100.00
55590;BME280;41452;42.780;23.116;2023-06-26T05:21:24;94165.09;;;18.52;100.00
55590;BME280;41452;42.780;23.116;2023-06-26T05:23:51;94161.22;;;18.44;100.00
55590;BME280;41452;42.780;23.116;2023-06-26T05:26:18;94162.28;;;18.43;100.00
55590;BME280;41452;42.780;23.116;2023-06-26T05:28:43;94170.72;;;18.50;100.00
55590;BME280;41452;42.780;23.116;2023-06-26T05:31:13;94177.69;;;18.65;100.00
55590;BME280;41452;42.780;23.116;2023-06-26T05:33:43;94183.09;;;18.60;100.00
55590;BME280;41452;42.780;23.116;2023-06-26T05:36:09;94168.06;;;18.50;100.00
55590;BME280;41452;42.780;23.116;2023-06-26T05:38:35;94181.22;;;18.60;100.00
55590;BME280;41452;42.780;23.116;2023-06-26T05:41:00;94188.34;;;18.65;100.00
55590;BME280;41452;42.780;23.116;2023-06-26T05:43:26;94190.16;;;18.70;100.00
55590;BME280;41452;42.780;23.116;2023-06-26T05:45:51;94190.16;;;18.70;100.00
55590;BME280;41452;42.780;23.116;2023-06-26T05:48:17;94182.84;;;18.80;100.00
55590;BME280;41452;42.780;23.116;2023-06-26T05:50:43;94176.50;;;18.82;100.00
55590;BME280;41452;42.780;23.116;2023-06-26T05:53:09;94191.88;;;18.79;100.00
55590;BME280;41452;42.780;23.116;2023-06-26T05:55:35;94183.09;;;18.84;100.00
55590;BME280;41452;42.780;23.116;2023-06-26T05:58:02;94164.47;;;18.84;100.00
55590;BME280;41452;42.780;23.116;2023-06-26T06:00:28;94143.00;;;18.75;100.00
55590;BME280;41452;42.780;23.116;2023-06-26T06:02:53;94158.66;;;18.82;100.00
55590;BME280;41452;42.780;23.116;2023-06-26T06:05:20;94178.66;;;18.98;100.00
55590;BME280;41452;42.780;23.116;2023-06-26T06:07:45;94187.78;;;19.11;100.00
55590;BME280;41452;42.780;23.116;2023-06-26T06:10:10;94153.25;;;18.87;100.00
55590;BME280;41452;42.780;23.116;2023-06-26T06:12:36;94186.94;;;19.16;100.00
55590;BME280;41452;42.780;23.116;2023-06-26T06:15:02;94176.00;;;19.17;100.00
55590;BME280;41452;42.780;23.116;2023-06-26T06:17:28;94187.06;;;19.25;100.00
55590;BME280;41452;42.780;23.116;2023-06-26T06:19:53;94181.63;;;19.35;100.00
55590;BME280;41452;42.780;23.116;2023-06-26T06:22:19;94182.75;;;19.48;100.00
55590;BME280;41452;42.780;23.116;2023-06-26T06:24:44;94182.66;;;19.53;100.00
55590;BME280;41452;42.780;23.116;2023-06-26T06:27:10;94171.09;;;19.44;100.00
55590;BME280;41452;42.780;23.116;2023-06-26T06:29:35;94159.44;;;19.40;100.00
55590;BME280;41452;42.780;23.116;2023-06-26T06:32:01;94178.91;;;19.54;100.00
55590;BME280;41452;42.780;23.116;2023-06-26T06:34:26;94166.41;;;19.35;100.00
55590;BME280;41452;42.780;23.116;2023-06-26T06:36:51;94182.59;;;19.58;100.00
55590;BME280;41452;42.780;23.116;2023-06-26T06:39:17;94183.00;;;19.65;100.00
55590;BME280;41452;42.780;23.116;2023-06-26T06:41:42;94176.78;;;19.70;100.00
55590;BME280;41452;42.780;23.116;2023-06-26T06:44:07;94185.97;;;19.83;100.00
55590;BME280;41452;42.780;23.116;2023-06-26T06:46:33;94184.50;;;19.71;100.00
55590;BME280;41452;42.780;23.116;2023-06-26T06:48:58;94184.50;;;19.71;100.00
55590;BME280;41452;42.780;23.116;2023-06-26T06:51:25;94146.38;;;19.57;100.00
55590;BME280;41452;42.780;23.116;2023-06-26T06:53:51;94173.44;;;19.64;100.00
55590;BME280;41452;42.780;23.116;2023-06-26T06:56:16;94179.28;;;19.99;100.00
55590;BME280;41452;42.780;23.116;2023-06-26T06:58:41;94182.81;;;19.94;100.00
55590;BME280;41452;42.780;23.116;2023-06-26T07:01:11;94180.34;;;19.98;100.00
55590;BME280;41452;42.780;23.116;2023-06-26T07:03:37;94161.50;;;19.94;100.00
55590;BME280;41452;42.780;23.116;2023-06-26T07:06:02;94164.69;;;20.10;100.00
55590;BME280;41452;42.780;23.116;2023-06-26T07:08:28;94178.91;;;20.20;100.00
55590;BME280;41452;42.780;23.116;2023-06-26T07:10:54;94155.72;;;20.06;100.00
55590;BME280;41452;42.780;23.116;2023-06-26T07:13:21;94162.34;;;20.23;100.00
55590;BME280;41452;42.780;23.116;2023-06-26T07:15:47;94156.03;;;20.19;100.00
55590;BME280;41452;42.780;23.116;2023-06-26T07:18:13;94149.91;;;20.18;100.00
55590;BME280;41452;42.780;23.116;2023-06-26T07:20:38;94179.94;;;20.38;100.00
55590;BME280;41452;42.780;23.116;2023-06-26T07:23:04;94182.69;;;20.46;100.00
55590;BME280;41452;42.780;23.116;2023-06-26T07:25:29;94161.56;;;20.36;100.00
55590;BME280;41452;42.780;23.116;2023-06-26T07:27:54;94179.81;;;20.57;100.00
55590;BME280;41452;42.780;23.116;2023-06-26T07:30:20;94169.00;;;20.67;100.00
55590;BME280;41452;42.780;23.116;2023-06-26T07:32:45;94160.00;;;20.63;100.00
55590;BME280;41452;42.780;23.116;2023-06-26T07:35:11;94168.38;;;20.56;100.00
55590;BME280;41452;42.780;23.116;2023-06-26T07:37:36;94177.78;;;20.81;100.00
55590;BME280;41452;42.780;23.116;2023-06-26T07:40:02;94186.84;;;20.80;100.00
55590;BME280;41452;42.780;23.116;2023-06-26T07:42:27;94183.69;;;20.78;100.00
55590;BME280;41452;42.780;23.116;2023-06-26T07:44:53;94194.84;;;20.80;100.00
55590;BME280;41452;42.780;23.116;2023-06-26T07:47:18;94171.84;;;20.70;99.66
55590;BME280;41452;42.780;23.116;2023-06-26T07:49:44;94188.53;;;20.76;98.67
55590;BME280;41452;42.780;23.116;2023-06-26T07:52:09;94174.22;;;20.72;98.98
55590;BME280;41452;42.780;23.116;2023-06-26T07:54:40;94174.44;;;20.62;96.87
55590;BME280;41452;42.780;23.116;2023-06-26T07:57:06;94186.25;;;20.83;97.80
55590;BME280;41452;42.780;23.116;2023-06-26T07:59:32;94159.59;;;20.69;97.65
55590;BME280;41452;42.780;23.116;2023-06-26T08:01:58;94181.69;;;20.98;98.32
55590;BME280;41452;42.780;23.116;2023-06-26T08:04:26;94177.25;;;21.07;99.66
55590;BME280;41452;42.780;23.116;2023-06-26T08:06:54;94179.97;;;21.16;100.00
55590;BME280;41452;42.780;23.116;2023-06-26T08:09:21;94179.50;;;21.14;97.36
55590;BME280;41452;42.780;23.116;2023-06-26T08:11:47;94185.41;;;21.24;91.64
55590;BME280;41452;42.780;23.116;2023-06-26T08:14:13;94181.91;;;21.38;96.30
55590;BME280;41452;42.780;23.116;2023-06-26T08:16:39;94165.03;;;21.29;94.85
55590;BME280;41452;42.780;23.116;2023-06-26T08:19:05;94152.34;;;21.34;96.55
55590;BME280;41452;42.780;23.116;2023-06-26T08:21:30;94148.63;;;21.21;94.44
55590;BME280;41452;42.780;23.116;2023-06-26T08:23:56;94185.81;;;21.54;91.63
55590;BME280;41452;42.780;23.116;2023-06-26T08:26:22;94179.28;;;21.60;94.99
55590;BME280;41452;42.780;23.116;2023-06-26T08:28:47;94188.28;;;21.64;93.55
55590;BME280;41452;42.780;23.116;2023-06-26T08:31:12;94185.72;;;21.59;94.24
55590;BME280;41452;42.780;23.116;2023-06-26T08:33:38;94186.06;;;21.67;94.28
55590;BME280;41452;42.780;23.116;2023-06-26T08:36:03;94186.25;;;21.70;95.07
55590;BME280;41452;42.780;23.116;2023-06-26T08:38:29;94187.41;;;21.78;94.11
55590;BME280;41452;42.780;23.116;2023-06-26T08:40:54;94170.66;;;21.63;92.79
55590;BME280;41452;42.780;23.116;2023-06-26T08:43:20;94145.56;;;21.51;95.00
55590;BME280;41452;42.780;23.116;2023-06-26T08:45:47;94168.09;;;21.81;90.09
55590;BME280;41452;42.780;23.116;2023-06-26T08:48:17;94151.22;;;21.72;92.17
55590;BME280;41452;42.780;23.116;2023-06-26T08:50:43;94189.28;;;22.00;86.85
55590;BME280;41452;42.780;23.116;2023-06-26T08:53:33;94185.03;;;21.99;88.46
55590;BME280;41452;42.780;23.116;2023-06-26T08:56:02;94186.44;;;21.96;89.22
55590;BME280;41452;42.780;23.116;2023-06-26T08:58:28;94152.66;;;21.78;87.04
55590;BME280;41452;42.780;23.116;2023-06-26T09:00:54;94160.25;;;21.84;89.50
55590;BME280;41452;42.780;23.116;2023-06-26T09:03:21;94182.16;;;21.95;88.31
55590;BME280;41452;42.780;23.116;2023-06-26T09:05:47;94182.88;;;22.10;88.49
55590;BME280;41452;42.780;23.116;2023-06-26T09:08:12;94177.09;;;22.16;83.53
55590;BME280;41452;42.780;23.116;2023-06-26T09:10:38;94162.13;;;22.07;86.55
55590;BME280;41452;42.780;23.116;2023-06-26T09:13:04;94157.72;;;22.11;90.81
55590;BME280;41452;42.780;23.116;2023-06-26T09:15:43;94163.91;;;22.20;86.24
55590;BME280;41452;42.780;23.116;2023-06-26T09:18:09;94177.28;;;22.20;87.57
55590;BME280;41452;42.780;23.116;2023-06-26T09:20:35;94179.41;;;22.32;87.96
55590;BME280;41452;42.780;23.116;2023-06-26T09:23:00;94170.78;;;22.44;88.78
55590;BME280;41452;42.780;23.116;2023-06-26T09:25:27;94179.03;;;22.56;83.28
55590;BME280;41452;42.780;23.116;2023-06-26T09:27:54;94176.34;;;22.56;83.88
55590;BME280;41452;42.780;23.116;2023-06-26T09:30:20;94180.28;;;22.50;83.45
55590;BME280;41452;42.780;23.116;2023-06-26T09:32:45;94171.16;;;22.59;83.04
55590;BME280;41452;42.780;23.116;2023-06-26T09:35:11;94171.66;;;22.70;82.86
55590;BME280;41452;42.780;23.116;2023-06-26T09:37:37;94180.19;;;22.72;87.59
55590;BME280;41452;42.780;23.116;2023-06-26T09:40:03;94135.53;;;22.42;81.88
55590;BME280;41452;42.780;23.116;2023-06-26T09:42:30;94162.53;;;22.63;83.59
55590;BME280;41452;42.780;23.116;2023-06-26T09:44:56;94171.56;;;22.93;83.38
55590;BME280;41452;42.780;23.116;2023-06-26T09:47:23;94181.03;;;22.99;83.26
55590;BME280;41452;42.780;23.116;2023-06-26T09:49:49;94175.41;;;23.09;84.55
55590;BME280;41452;42.780;23.116;2023-06-26T09:52:16;94182.97;;;23.07;86.74
55590;BME280;41452;42.780;23.116;2023-06-26T09:54:42;94160.78;;;23.15;84.75
55590;BME280;41452;42.780;23.116;2023-06-26T09:57:13;94149.59;;;23.13;83.35
55590;BME280;41452;42.780;23.116;2023-06-26T09:59:39;94169.13;;;23.23;83.10
55590;BME280;41452;42.780;23.116;2023-06-26T10:02:05;94178.59;;;23.46;80.67
55590;BME280;41452;42.780;23.116;2023-06-26T10:04:31;94178.44;;;23.51;81.21
55590;BME280;41452;42.780;23.116;2023-06-26T10:06:58;94177.19;;;23.58;79.36
55590;BME280;41452;42.780;23.116;2023-06-26T10:09:27;94151.78;;;23.46;76.70
55590;BME280;41452;42.780;23.116;2023-06-26T10:11:57;94177.19;;;23.58;77.79
55590;BME280;41452;42.780;23.116;2023-06-26T10:14:27;94162.19;;;23.57;77.50
55590;BME280;41452;42.780;23.116;2023-06-26T10:16:58;94115.72;;;23.18;77.67
55590;BME280;41452;42.780;23.116;2023-06-26T10:19:26;94168.94;;;23.63;74.17
55590;BME280;41452;42.780;23.116;2023-06-26T10:21:53;94167.22;;;23.67;79.33
55590;BME280;41452;42.780;23.116;2023-06-26T10:24:20;94154.47;;;23.55;76.85
55590;BME280;41452;42.780;23.116;2023-06-26T10:26:50;94164.72;;;23.62;79.46
55590;BME280;41452;42.780;23.116;2023-06-26T10:29:17;94168.81;;;23.33;80.75
55590;BME280;41452;42.780;23.116;2023-06-26T10:31:49;94161.56;;;23.42;79.13
55590;BME280;41452;42.780;23.116;2023-06-26T10:34:15;94156.22;;;23.60;81.97
55590;BME280;41452;42.780;23.116;2023-06-26T10:36:41;94119.31;;;23.39;79.37
55590;BME280;41452;42.780;23.116;2023-06-26T10:39:06;94158.88;;;23.68;77.73
55590;BME280;41452;42.780;23.116;2023-06-26T10:41:40;94143.88;;;23.67;78.34
55590;BME280;41452;42.780;23.116;2023-06-26T10:44:17;94153.34;;;23.91;81.30
55590;BME280;41452;42.780;23.116;2023-06-26T10:46:54;94160.13;;;23.97;76.15
55590;BME280;41452;42.780;23.116;2023-06-26T10:49:24;94157.59;;;23.92;72.47
55590;BME280;41452;42.780;23.116;2023-06-26T10:51:51;94156.16;;;23.95;73.17
55590;BME280;41452;42.780;23.116;2023-06-26T10:54:18;94152.69;;;23.94;72.52
55590;BME280;41452;42.780;23.116;2023-06-26T10:56:47;94157.75;;;23.96;75.01
55590;BME280;41452;42.780;23.116;2023-06-26T11:01:41;94151.38;;;24.18;69.72
55590;BME280;41452;42.780;23.116;2023-06-26T11:04:08;94143.84;;;24.11;70.70
55590;BME280;41452;42.780;23.116;2023-06-26T11:06:35;94119.75;;;23.85;70.17
55590;BME280;41452;42.780;23.116;2023-06-26T11:09:01;94146.97;;;24.22;72.48
55590;BME280;41452;42.780;23.116;2023-06-26T11:14:19;94128.31;;;24.25;71.17
55590;BME280;41452;42.780;23.116;2023-06-26T11:16:45;94144.06;;;24.36;71.74
55590;BME280;41452;42.780;23.116;2023-06-26T11:19:12;94110.81;;;24.19;69.19
55590;BME280;41452;42.780;23.116;2023-06-26T11:21:38;94146.75;;;24.36;70.37
55590;BME280;41452;42.780;23.116;2023-06-26T11:24:08;94143.38;;;24.56;67.72
55590;BME280;41452;42.780;23.116;2023-06-26T11:26:41;94138.44;;;24.58;73.14
55590;BME280;41452;42.780;23.116;2023-06-26T11:29:07;94141.94;;;24.59;71.53
55590;BME280;41452;42.780;23.116;2023-06-26T11:31:34;94135.00;;;24.58;73.35
55590;BME280;41452;42.780;23.116;2023-06-26T11:34:02;94139.00;;;24.73;71.58
55590;BME280;41452;42.780;23.116;2023-06-26T11:36:29;94149.78;;;24.64;65.67
55590;BME280;41452;42.780;23.116;2023-06-26T11:38:59;94121.94;;;24.39;63.14
55590;BME280;41452;42.780;23.116;2023-06-26T11:41:29;94146.97;;;24.52;66.80
55590;BME280;41452;42.780;23.116;2023-06-26T11:43:55;94146.69;;;24.53;63.35
55590;BME280;41452;42.780;23.116;2023-06-26T11:46:22;94132.59;;;24.18;65.53
55590;BME280;41452;42.780;23.116;2023-06-26T11:48:48;94134.47;;;24.26;66.03
55590;BME280;41452;42.780;23.116;2023-06-26T11:51:14;94125.19;;;24.23;64.35
55590;BME280;41452;42.780;23.116;2023-06-26T11:53:41;94146.75;;;24.36;69.01
55590;BME280;41452;42.780;23.116;2023-06-26T11:56:11;94145.19;;;24.26;70.48
55590;BME280;41452;42.780;23.116;2023-06-26T11:59:05;94141.84;;;24.38;68.19
55590;BME280;41452;42.780;23.116;2023-06-26T12:01:42;94137.91;;;24.35;71.75
55590;BME280;41452;42.780;23.116;2023-06-26T12:04:11;94128.25;;;24.43;70.41
55590;BME280;41452;42.780;23.116;2023-06-26T12:06:38;94123.97;;;24.42;75.23
55590;BME280;41452;42.780;23.116;2023-06-26T12:09:06;94132.19;;;24.45;67.96
55590;BME280;41452;42.780;23.116;2023-06-26T12:11:33;94128.72;;;24.45;66.18
55590;BME280;41452;42.780;23.116;2023-06-26T12:14:00;94131.06;;;24.55;70.28
55590;BME280;41452;42.780;23.116;2023-06-26T12:16:28;94128.44;;;24.67;65.61
55590;BME280;41452;42.780;23.116;2023-06-26T12:19:04;94106.41;;;24.53;65.57
55590;BME280;41452;42.780;23.116;2023-06-26T12:23:59;94127.59;;;24.46;66.39
55590;BME280;41452;42.780;23.116;2023-06-26T12:26:26;94129.16;;;24.47;65.15
55590;BME280;41452;42.780;23.116;2023-06-26T12:28:51;94126.03;;;24.54;68.69
55590;BME280;41452;42.780;23.116;2023-06-26T12:31:19;94122.88;;;24.43;65.93
55590;BME280;41452;42.780;23.116;2023-06-26T12:33:45;94127.25;;;24.56;72.14
55590;BME280;41452;42.780;23.116;2023-06-26T12:36:13;94115.88;;;24.51;68.81
55590;BME280;41452;42.780;23.116;2023-06-26T12:38:40;94137.38;;;24.51;68.27
55590;BME280;41452;42.780;23.116;2023-06-26T12:41:12;94125.50;;;24.52;67.16
55590;BME280;41452;42.780;23.116;2023-06-26T12:43:38;94106.63;;;24.39;71.70
55590;BME280;41452;42.780;23.116;2023-06-26T12:46:05;94067.06;;;24.27;72.60
55590;BME280;41452;42.780;23.116;2023-06-26T12:48:41;94121.84;;;24.65;69.92
55590;BME280;41452;42.780;23.116;2023-06-26T12:51:16;94121.66;;;24.70;66.70
55590;BME280;41452;42.780;23.116;2023-06-26T12:53:41;94122.75;;;24.69;67.55
55590;BME280;41452;42.780;23.116;2023-06-26T12:56:08;94125.44;;;24.69;67.19